createdAt,value
2018-07-19T00:02:43.982Z,101563.55
2018-07-19T00:07:46.152Z,101569.95
2018-07-19T00:12:48.317Z,101573.07
2018-07-19T00:17:50.461Z,101580.30
2018-07-19T00:22:52.602Z,101579.31
2018-07-19T00:27:54.779Z,101572.77
2018-07-19T00:32:56.970Z,101571.63
2018-07-19T00:37:59.123Z,101575.98
2018-07-19T00:43:01.311Z,101570.85
2018-07-19T00:48:03.488Z,101566.23
2018-07-19T00:53:05.654Z,101569.84
2018-07-19T00:58:08.119Z,101564.35
2018-07-19T01:03:10.310Z,101567.55
2018-07-19T01:08:12.472Z,101568.57
2018-07-19T01:13:14.667Z,101566.87
2018-07-19T01:18:16.839Z,101565.30
2018-07-19T01:23:18.958Z,101563.69
2018-07-19T01:28:21.099Z,101562.97
2018-07-19T01:33:23.263Z,101559.08
2018-07-19T01:38:25.449Z,101554.05
2018-07-19T01:43:27.648Z,101554.64
2018-07-19T01:48:29.795Z,101556.58
2018-07-19T01:53:31.962Z,101552.81
2018-07-19T01:58:34.115Z,101558.56
2018-07-19T02:03:36.261Z,101557.27
2018-07-19T02:08:38.418Z,101556.14
2018-07-19T02:13:40.616Z,101555.45
2018-07-19T02:18:42.760Z,101559.59
2018-07-19T02:23:44.906Z,101553.13
2018-07-19T02:28:47.075Z,101557.92
2018-07-19T02:33:49.634Z,101559.83
2018-07-19T02:38:51.818Z,101562.88
2018-07-19T02:43:54.004Z,101565.20
2018-07-19T02:48:56.145Z,101559.44
2018-07-19T02:53:58.334Z,101567.65
2018-07-19T02:59:00.609Z,101565.45
2018-07-19T03:04:02.923Z,101566.33
2018-07-19T03:09:05.945Z,101569.64
2018-07-19T03:14:08.162Z,101561.77
2018-07-19T03:19:10.329Z,101560.87
2018-07-19T03:24:12.513Z,101565.59
2018-07-19T03:29:14.719Z,101559.23
2018-07-19T03:34:16.895Z,101560.91
2018-07-19T03:39:19.051Z,101561.89
2018-07-19T03:44:21.309Z,101569.88
2018-07-19T03:49:23.460Z,101564.66
2018-07-19T03:54:25.631Z,101554.70
2018-07-19T03:59:27.808Z,101560.86
2018-07-19T04:04:30.001Z,101546.81
2018-07-19T04:09:32.179Z,101571.56
2018-07-19T04:14:34.601Z,101569.91
2018-07-19T04:19:36.733Z,101567.45
2018-07-19T04:24:38.934Z,101579.80
2018-07-19T04:29:41.113Z,101574.42
2018-07-19T04:34:43.303Z,101581.38
2018-07-19T04:39:45.489Z,101583.99
2018-07-19T04:44:47.681Z,101584.92
2018-07-19T04:49:49.864Z,101580.88
2018-07-19T04:54:51.997Z,101587.45
2018-07-19T04:59:54.171Z,101590.41
2018-07-19T05:04:56.358Z,101596.65
2018-07-19T05:09:58.530Z,101586.42
2018-07-19T05:15:00.753Z,101593.71
2018-07-19T05:20:02.989Z,101595.28
2018-07-19T05:25:05.246Z,101604.11
2018-07-19T05:30:07.460Z,101598.43
2018-07-19T05:35:10.427Z,101607.83
2018-07-19T05:40:12.575Z,101610.83
2018-07-19T05:45:14.760Z,101611.38
2018-07-19T05:50:16.912Z,101619.47
2018-07-19T05:55:19.092Z,101609.86
2018-07-19T06:00:21.272Z,101608.03
2018-07-19T06:05:23.539Z,101613.97
2018-07-19T06:10:25.845Z,101609.17
2018-07-19T06:15:28.055Z,101607.77
2018-07-19T06:20:30.423Z,101617.88
2018-07-19T06:25:32.602Z,101608.74
2018-07-19T06:30:34.779Z,101607.59
2018-07-19T06:35:36.989Z,101607.84
2018-07-19T06:40:39.172Z,101607.72
2018-07-19T06:45:41.743Z,101608.40
2018-07-19T06:50:43.964Z,101611.84
2018-07-19T06:55:46.350Z,101616.78
2018-07-19T07:00:48.608Z,101613.77
2018-07-19T07:05:50.909Z,101616.45
2018-07-19T07:10:53.084Z,101616.87
2018-07-19T07:15:55.429Z,101619.30
2018-07-19T07:20:57.767Z,101625.82
2018-07-19T07:25:59.960Z,101621.68
2018-07-19T07:31:02.142Z,101617.31
2018-07-19T07:36:04.576Z,101625.12
2018-07-19T07:41:06.815Z,101620.59
2018-07-19T07:46:09.007Z,101618.95
2018-07-19T07:51:11.192Z,101626.65
2018-07-19T07:56:13.366Z,101632.05
2018-07-19T08:01:16.461Z,101623.37
2018-07-19T08:06:18.664Z,101622.59
2018-07-19T08:11:20.835Z,101610.34
2018-07-19T08:16:23.089Z,101613.36
2018-07-19T08:21:25.284Z,101611.24
2018-07-19T08:26:27.495Z,101612.17
2018-07-19T08:31:29.695Z,101611.72
2018-07-19T08:36:31.955Z,101606.16
2018-07-19T08:41:34.191Z,101607.09
2018-07-19T08:46:36.435Z,101598.08
2018-07-19T08:51:38.672Z,101606.22
2018-07-19T08:56:40.929Z,101590.48
2018-07-19T09:01:43.138Z,101593.98
2018-07-19T09:06:45.350Z,101602.62
2018-07-19T09:11:47.553Z,101586.73
2018-07-19T09:16:49.820Z,101583.73
2018-07-19T09:21:52.032Z,101588.80
2018-07-19T09:26:54.225Z,101577.27
2018-07-19T09:31:56.427Z,101551.54
2018-07-19T09:36:58.701Z,101580.34
2018-07-19T09:42:00.913Z,101579.55
2018-07-19T09:47:03.188Z,101577.80
2018-07-19T09:52:05.386Z,101574.36
2018-07-19T09:57:07.568Z,101574.36
2018-07-19T10:02:09.818Z,101572.65
2018-07-19T10:07:11.974Z,101571.81
2018-07-19T10:12:14.163Z,101572.15
2018-07-19T10:17:16.632Z,101574.22
2018-07-19T10:22:18.804Z,101577.21
2018-07-19T10:27:20.963Z,101569.48
2018-07-19T10:32:23.407Z,101573.03
2018-07-19T10:37:25.466Z,101560.63
2018-07-19T10:42:28.059Z,101563.66
2018-07-19T10:47:30.232Z,101567.07
2018-07-19T10:52:32.699Z,101561.03
2018-07-19T10:57:34.912Z,101557.59
2018-07-19T11:02:37.115Z,101550.13
2018-07-19T11:07:39.336Z,101545.49
2018-07-19T11:12:41.502Z,101545.05
2018-07-19T11:17:43.731Z,101540.45
2018-07-19T11:22:45.891Z,101525.45
2018-07-19T11:27:48.073Z,101532.85
2018-07-19T11:32:50.211Z,101544.95
2018-07-19T11:37:52.407Z,101540.41
2018-07-19T11:42:54.587Z,101539.16
2018-07-19T11:47:56.832Z,101530.89
2018-07-19T11:52:58.980Z,101527.95
2018-07-19T11:58:01.134Z,101533.53
2018-07-19T12:03:03.331Z,101512.13
2018-07-19T12:08:05.503Z,101509.98
2018-07-19T12:13:08.083Z,101519.41
2018-07-19T12:18:10.290Z,101514.63
2018-07-19T12:23:13.201Z,101518.19
2018-07-19T12:28:15.347Z,101508.04
2018-07-19T12:33:17.563Z,101504.98
2018-07-19T12:38:20.173Z,101504.63
2018-07-19T12:43:22.402Z,101490.08
2018-07-19T12:48:24.553Z,101491.94
2018-07-19T12:53:26.776Z,101491.60
2018-07-19T12:58:28.944Z,101488.19
2018-07-19T13:03:31.128Z,101492.83
2018-07-19T13:08:33.326Z,101488.69
2018-07-19T13:13:36.391Z,101489.98
2018-07-19T13:18:38.642Z,101487.16
2018-07-19T13:23:41.255Z,101488.23
2018-07-19T13:28:43.478Z,101491.91
2018-07-19T13:33:45.659Z,101491.17
2018-07-19T13:38:47.870Z,101489.98
2018-07-19T13:43:50.076Z,101482.30
2018-07-19T13:48:52.232Z,101476.31
2018-07-19T13:54:17.746Z,101476.08
2018-07-19T13:59:19.966Z,101469.82
2018-07-19T14:04:22.164Z,101471.30
2018-07-19T14:09:24.365Z,101465.10
2018-07-19T14:14:26.539Z,101447.78
2018-07-19T14:19:28.742Z,101472.25
2018-07-19T14:24:30.916Z,101471.47
2018-07-19T14:29:33.089Z,101463.66
2018-07-19T14:34:35.269Z,101469.41
2018-07-19T14:39:37.462Z,101461.39
2018-07-19T14:44:39.631Z,101452.91
2018-07-19T14:49:41.846Z,101443.30
2018-07-19T14:54:44.019Z,101450.80
2018-07-19T14:59:46.218Z,101442.08
2018-07-19T15:04:48.406Z,101435.50
2018-07-19T15:09:50.624Z,101436.08
2018-07-19T15:14:53.007Z,101435.93
2018-07-19T15:19:55.278Z,101433.61
2018-07-19T15:24:57.420Z,101435.94
2018-07-19T15:29:59.602Z,101424.17
2018-07-19T15:35:01.758Z,101421.86
2018-07-19T15:40:05.048Z,101423.12
2018-07-19T15:45:07.517Z,101425.98
2018-07-19T15:50:09.715Z,101417.88
2018-07-19T15:55:11.954Z,101401.88
2018-07-19T16:00:14.159Z,101412.35
2018-07-19T16:05:16.443Z,101414.45
2018-07-19T16:10:18.708Z,101406.64
2018-07-19T16:15:20.875Z,101400.28
2018-07-19T16:20:23.084Z,101410.41
2018-07-19T16:25:25.269Z,101401.03
2018-07-19T16:30:27.443Z,101397.31
2018-07-19T16:35:29.731Z,101400.33
2018-07-19T16:40:31.888Z,101405.19
2018-07-19T16:45:34.080Z,101403.95
2018-07-19T16:50:36.291Z,101410.78
2018-07-19T16:55:38.500Z,101405.73
2018-07-19T17:00:40.670Z,101398.48
2018-07-19T17:05:42.904Z,101399.87
2018-07-19T17:10:45.096Z,101400.92
2018-07-19T17:15:47.351Z,101399.83
2018-07-19T17:20:49.597Z,101392.28
2018-07-19T17:25:51.783Z,101394.31
2018-07-19T17:30:53.974Z,101393.67
2018-07-19T17:35:56.171Z,101393.76
2018-07-19T17:40:58.410Z,101400.67
2018-07-19T17:46:00.596Z,101394.67
2018-07-19T17:51:02.761Z,101400.09
2018-07-19T17:56:05.001Z,101410.66
2018-07-19T18:01:07.327Z,101405.67
2018-07-19T18:06:09.461Z,101410.09
2018-07-19T18:11:11.665Z,101405.33
2018-07-19T18:16:13.881Z,101407.25
2018-07-19T18:21:16.096Z,101407.06
2018-07-19T18:26:18.332Z,101425.66
2018-07-19T18:31:20.576Z,101428.00
2018-07-19T18:36:22.980Z,101425.11
2018-07-19T18:41:25.181Z,101432.95
2018-07-19T18:46:27.409Z,101433.52
2018-07-19T18:51:29.689Z,101429.67
2018-07-19T18:56:31.994Z,101438.73
2018-07-19T19:01:34.209Z,101442.17
2018-07-19T19:06:36.480Z,101443.92
2018-07-19T19:11:38.657Z,101446.89
2018-07-19T19:16:40.839Z,101448.64
2018-07-19T19:21:43.315Z,101445.59
2018-07-19T19:26:45.507Z,101444.74
2018-07-19T19:31:47.695Z,101441.74
2018-07-19T19:36:49.917Z,101440.05
2018-07-19T19:41:52.118Z,101446.91
2018-07-19T19:46:54.334Z,101450.76
2018-07-19T19:51:56.549Z,101459.75
2018-07-19T19:56:59.206Z,101457.14
2018-07-19T20:02:01.456Z,101457.52
2018-07-19T20:07:03.708Z,101460.08
2018-07-19T20:12:05.911Z,101447.65
2018-07-19T20:17:08.116Z,101455.01
2018-07-19T20:22:10.429Z,101451.17
2018-07-19T20:27:12.650Z,101448.59
2018-07-19T20:32:14.986Z,101447.33
2018-07-19T20:37:17.219Z,101440.02
2018-07-19T20:42:19.358Z,101441.74
2018-07-19T20:47:21.612Z,101442.86
2018-07-19T20:52:23.848Z,101453.39
2018-07-19T20:57:26.051Z,101452.78
2018-07-19T21:02:28.232Z,101449.69
2018-07-19T21:07:30.461Z,101456.02
2018-07-19T21:12:32.658Z,101454.66
2018-07-19T21:17:34.808Z,101456.85
2018-07-19T21:22:36.984Z,101449.03
2018-07-19T21:27:39.183Z,101452.50
2018-07-19T21:32:41.359Z,101448.57
2018-07-19T21:37:43.532Z,101459.06
2018-07-19T21:42:45.670Z,101459.66
2018-07-19T21:47:47.863Z,101460.37
2018-07-19T21:52:51.405Z,101462.12
2018-07-19T21:57:53.619Z,101457.41
2018-07-19T22:02:56.244Z,101460.37
2018-07-19T22:07:58.425Z,101454.41
2018-07-19T22:13:00.604Z,101454.23
2018-07-19T22:18:03.322Z,101451.22
2018-07-19T22:23:05.572Z,101454.78
2018-07-19T22:28:07.767Z,101452.75
2018-07-19T22:33:10.059Z,101450.73
2018-07-19T22:38:12.200Z,101450.70
2018-07-19T22:43:14.355Z,101447.77
2018-07-19T22:48:16.540Z,101442.16
2018-07-19T22:53:18.721Z,101437.98
2018-07-19T22:58:20.857Z,101438.78
2018-07-19T23:03:23.047Z,101444.79
2018-07-19T23:08:25.206Z,101447.61
2018-07-19T23:13:27.371Z,101447.53
2018-07-19T23:18:29.505Z,101446.30
2018-07-19T23:23:31.709Z,101434.28
2018-07-19T23:28:33.967Z,101430.02
2018-07-19T23:33:36.163Z,101435.56
2018-07-19T23:38:42.054Z,101432.09
2018-07-19T23:43:47.097Z,101438.06
2018-07-19T23:48:49.260Z,101429.49
2018-07-19T23:53:51.606Z,101424.40
2018-07-19T23:58:53.755Z,101426.02
